This is the latest recevied weather packets stored in our database for station/object BMCB-34. If no packets are shown the sender has not sent any weather packets the latest 10 day(s).
| Time | Temp. | Humidity | Pressure | Rain* | Wind** | Luminosity | Snow |
|---|---|---|---|---|---|---|---|
| 1778124635 | 7.78° C | 86% | 1007.6 hPa | 0 mm | - | 0 W/m² | - |
| 1778124035 | 7.78° C | 85% | 1007.5 hPa | 0 mm | - | 0 W/m² | - |
| 1778121637 | 7.78° C | 85% | 1007.5 hPa | 0 mm | - | 0 W/m² | - |
| 1778121630 | 7.78° C | 86% | 1007.4 hPa | 0 mm | - | 0 W/m² | - |
| 1778120439 | 7.78° C | 86% | 1007.4 hPa | 0 mm | - | 0 W/m² | - |
| 1778116835 | 8.89° C | 84% | 1007 hPa | 0 mm | - | 0 W/m² | - |
| 1778115642 | 8.89° C | 84% | 1006.9 hPa | 0 mm | - | 0 W/m² | - |
| 1778115041 | 8.89° C | 85% | 1006.9 hPa | 0 mm | - | 0 W/m² | - |
| 1778113841 | 8.89° C | 85% | 1006.7 hPa | 0 mm | - | 0 W/m² | - |
| 1778112038 | 9.44° C | 85% | 1006.7 hPa | 0 mm | - | 0 W/m² | - |
| 1778111443 | 9.44° C | 85% | 1006.7 hPa | 0 mm | - | 0 W/m² | - |
| 1778108441 | 10° C | 83% | 1006.4 hPa | 0 mm | - | 0 W/m² | - |
| 1778107227 | 10° C | 83% | 1006.3 hPa | 0 mm | - | 0 W/m² | - |
| 1778106027 | 10° C | 83% | 1006 hPa | 0 mm | - | 0 W/m² | - |
| 1778105427 | 10° C | 83% | 1006 hPa | 0 mm | - | 0 W/m² | - |
| 1778104834 | 10° C | 83% | 1005.9 hPa | 0 mm | - | 0 W/m² | - |
| 1778103622 | 10° C | 83% | 1005.7 hPa | 0 mm | - | 0 W/m² | - |
| 1778101821 | 10° C | 81% | 1005.5 hPa | 0 mm | - | 0 W/m² | - |
| 1778100024 | 10.56° C | 77% | 1005.3 hPa | 0 mm | - | 0 W/m² | - |
| 1778098228 | 10.56° C | 80% | 1005.1 hPa | 0 mm | - | 0 W/m² | - |
| 1778097031 | 10.56° C | 82% | 1004.9 hPa | 0 mm | - | 0 W/m² | - |
| 1778097026 | 10.56° C | 83% | 1004.8 hPa | 0 mm | - | 0 W/m² | - |
| 1778091626 | 11.67° C | 78% | 1003.6 hPa | 0 mm | - | 16 W/m² | - |
| 1778091021 | 11.67° C | 78% | 1003.5 hPa | 0 mm | - | 8 W/m² | - |
| 1778089827 | 12.22° C | 76% | 1003.2 hPa | 0 mm | - | 78 W/m² | - |
* Rain latest hour (hover to see other rain measurements)
** Current wind speed in m/s (hover to see current wind gust speed)